sensor_id;sensor_type;location;lat;lon;timestamp;temperature;humidity
82851;DHT22;72609;45.768;4.884;2024-02-15T11:47:47;8.80;77.00
82851;DHT22;72609;45.768;4.884;2024-02-15T11:50:19;15.10;69.40
82851;DHT22;72609;45.768;4.884;2024-02-15T11:52:46;14.90;69.50
82851;DHT22;72609;45.768;4.884;2024-02-15T11:55:17;14.90;69.30
82851;DHT22;72609;45.768;4.884;2024-02-15T11:57:54;14.90;70.00
82851;DHT22;72609;45.768;4.884;2024-02-15T12:00:26;15.00;69.70
82851;DHT22;72609;45.768;4.884;2024-02-15T12:03:12;15.00;69.70
82851;DHT22;72609;45.768;4.884;2024-02-15T12:05:57;15.10;69.50
82851;DHT22;72609;45.768;4.884;2024-02-15T12:08:44;15.10;69.70
82851;DHT22;72609;45.768;4.884;2024-02-15T12:11:28;15.20;70.20
82851;DHT22;72609;45.768;4.884;2024-02-15T12:14:14;15.30;69.10
82851;DHT22;72609;45.768;4.884;2024-02-15T12:17:03;15.20;69.70
82851;DHT22;72609;45.768;4.884;2024-02-15T12:19:49;15.20;70.00
82851;DHT22;72609;45.768;4.884;2024-02-15T12:22:40;15.10;69.80
82851;DHT22;72609;45.768;4.884;2024-02-15T12:25:06;15.20;68.60
82851;DHT22;72609;45.768;4.884;2024-02-15T12:27:43;15.30;68.80
82851;DHT22;72609;45.768;4.884;2024-02-15T12:30:14;15.30;68.70
82851;DHT22;72609;45.768;4.884;2024-02-15T12:32:40;15.30;68.40
82851;DHT22;72609;45.768;4.884;2024-02-15T12:35:11;15.40;68.30
82851;DHT22;72609;45.768;4.884;2024-02-15T12:38:09;15.50;68.30
82851;DHT22;72609;45.768;4.884;2024-02-15T12:40:35;15.50;68.40
82851;DHT22;72609;45.768;4.884;2024-02-15T12:43:02;15.70;67.90
82851;DHT22;72609;45.768;4.884;2024-02-15T12:45:31;15.70;68.70
82851;DHT22;72609;45.768;4.884;2024-02-15T12:47:57;15.90;68.10
82851;DHT22;72609;45.768;4.884;2024-02-15T12:50:30;16.10;69.00
82851;DHT22;72609;45.768;4.884;2024-02-15T12:52:56;16.20;67.30
82851;DHT22;72609;45.768;4.884;2024-02-15T12:55:29;16.20;67.50
82851;DHT22;72609;45.768;4.884;2024-02-15T12:57:56;16.30;65.60
82851;DHT22;72609;45.768;4.884;2024-02-15T13:00:27;16.30;65.60
82851;DHT22;72609;45.768;4.884;2024-02-15T13:02:58;16.30;65.10
82851;DHT22;72609;45.768;4.884;2024-02-15T13:05:27;16.40;65.00
82851;DHT22;72609;45.768;4.884;2024-02-15T13:07:53;16.30;65.60
82851;DHT22;72609;45.768;4.884;2024-02-15T13:10:23;16.30;65.50
82851;DHT22;72609;45.768;4.884;2024-02-15T13:12:52;16.20;65.70
82851;DHT22;72609;45.768;4.884;2024-02-15T13:15:18;16.20;65.80
82851;DHT22;72609;45.768;4.884;2024-02-15T13:17:48;16.20;65.50
82851;DHT22;72609;45.768;4.884;2024-02-15T13:20:16;16.20;65.80
82851;DHT22;72609;45.768;4.884;2024-02-15T13:22:46;16.20;65.40
82851;DHT22;72609;45.768;4.884;2024-02-15T13:25:13;16.20;64.80
82851;DHT22;72609;45.768;4.884;2024-02-15T13:27:42;16.30;65.60
82851;DHT22;72609;45.768;4.884;2024-02-15T13:30:09;16.20;64.90
82851;DHT22;72609;45.768;4.884;2024-02-15T13:32:41;16.30;64.40
82851;DHT22;72609;45.768;4.884;2024-02-15T13:35:08;16.30;64.50
82851;DHT22;72609;45.768;4.884;2024-02-15T13:37:43;16.30;64.60
82851;DHT22;72609;45.768;4.884;2024-02-15T13:40:12;16.30;64.20
82851;DHT22;72609;45.768;4.884;2024-02-15T13:42:45;16.30;64.30
82851;DHT22;72609;45.768;4.884;2024-02-15T13:45:16;16.30;64.50
82851;DHT22;72609;45.768;4.884;2024-02-15T13:47:47;16.20;65.00
82851;DHT22;72609;45.768;4.884;2024-02-15T13:50:13;16.20;64.50
82851;DHT22;72609;45.768;4.884;2024-02-15T13:52:41;16.30;64.10
82851;DHT22;72609;45.768;4.884;2024-02-15T13:55:12;16.30;63.50
82851;DHT22;72609;45.768;4.884;2024-02-15T13:57:40;16.30;63.30
82851;DHT22;72609;45.768;4.884;2024-02-15T14:00:08;16.30;63.70
82851;DHT22;72609;45.768;4.884;2024-02-15T14:02:39;16.30;63.90
82851;DHT22;72609;45.768;4.884;2024-02-15T14:05:05;16.30;63.90
82851;DHT22;72609;45.768;4.884;2024-02-15T14:07:34;16.30;63.20
82851;DHT22;72609;45.768;4.884;2024-02-15T14:10:02;16.30;63.50
82851;DHT22;72609;45.768;4.884;2024-02-15T14:12:28;16.30;62.00
82851;DHT22;72609;45.768;4.884;2024-02-15T14:14:53;16.40;62.10
82851;DHT22;72609;45.768;4.884;2024-02-15T14:17:19;16.40;61.60
82851;DHT22;72609;45.768;4.884;2024-02-15T14:19:45;16.40;61.30
82851;DHT22;72609;45.768;4.884;2024-02-15T14:22:12;16.40;61.60
82851;DHT22;72609;45.768;4.884;2024-02-15T14:24:42;16.40;61.20
82851;DHT22;72609;45.768;4.884;2024-02-15T14:27:09;16.30;62.30
82851;DHT22;72609;45.768;4.884;2024-02-15T14:29:35;16.30;61.70
82851;DHT22;72609;45.768;4.884;2024-02-15T14:32:03;16.30;60.80
82851;DHT22;72609;45.768;4.884;2024-02-15T14:34:48;16.20;60.90
82851;DHT22;72609;45.768;4.884;2024-02-15T14:37:15;16.20;61.00
82851;DHT22;72609;45.768;4.884;2024-02-15T14:39:42;16.10;61.70
82851;DHT22;72609;45.768;4.884;2024-02-15T14:42:08;16.20;61.60
82851;DHT22;72609;45.768;4.884;2024-02-15T14:44:33;16.20;61.50
82851;DHT22;72609;45.768;4.884;2024-02-15T14:46:59;16.10;61.70
82851;DHT22;72609;45.768;4.884;2024-02-15T14:49:25;16.10;61.80
82851;DHT22;72609;45.768;4.884;2024-02-15T14:51:51;16.20;62.00
82851;DHT22;72609;45.768;4.884;2024-02-15T14:54:17;16.20;61.50
82851;DHT22;72609;45.768;4.884;2024-02-15T14:56:44;16.20;61.50
82851;DHT22;72609;45.768;4.884;2024-02-15T14:59:10;16.20;61.00
82851;DHT22;72609;45.768;4.884;2024-02-15T15:01:37;16.20;61.10
82851;DHT22;72609;45.768;4.884;2024-02-15T15:04:03;16.20;60.40
82851;DHT22;72609;45.768;4.884;2024-02-15T15:06:31;16.20;60.60
82851;DHT22;72609;45.768;4.884;2024-02-15T15:09:15;16.20;59.80
82851;DHT22;72609;45.768;4.884;2024-02-15T16:21:17;16.00;48.00
82851;DHT22;72609;45.768;4.884;2024-02-15T16:23:44;16.00;46.80
82851;DHT22;72609;45.768;4.884;2024-02-15T16:26:09;15.90;47.70
82851;DHT22;72609;45.768;4.884;2024-02-15T16:28:35;15.80;47.80
82851;DHT22;72609;45.768;4.884;2024-02-15T16:31:01;15.80;46.40
82851;DHT22;72609;45.768;4.884;2024-02-15T16:33:27;15.80;45.90
82851;DHT22;72609;45.768;4.884;2024-02-15T16:35:53;15.70;45.50
82851;DHT22;72609;45.768;4.884;2024-02-15T16:38:18;15.70;45.60
82851;DHT22;72609;45.768;4.884;2024-02-15T16:40:44;15.70;44.30
82851;DHT22;72609;45.768;4.884;2024-02-15T16:43:10;15.70;44.70
82851;DHT22;72609;45.768;4.884;2024-02-15T16:45:35;15.60;44.60
82851;DHT22;72609;45.768;4.884;2024-02-15T16:48:03;15.60;43.90
82851;DHT22;72609;45.768;4.884;2024-02-15T16:50:29;15.60;42.10
82851;DHT22;72609;45.768;4.884;2024-02-15T16:52:56;15.60;41.70
82851;DHT22;72609;45.768;4.884;2024-02-15T16:55:21;15.50;42.40
82851;DHT22;72609;45.768;4.884;2024-02-15T16:57:57;15.60;41.40
82851;DHT22;72609;45.768;4.884;2024-02-15T17:00:31;15.50;41.80
82851;DHT22;72609;45.768;4.884;2024-02-15T17:02:57;15.50;42.50
82851;DHT22;72609;45.768;4.884;2024-02-15T17:05:22;15.50;42.80
82851;DHT22;72609;45.768;4.884;2024-02-15T17:07:49;15.50;42.50
82851;DHT22;72609;45.768;4.884;2024-02-15T17:10:15;15.40;42.90
82851;DHT22;72609;45.768;4.884;2024-02-15T17:12:41;15.50;43.10
82851;DHT22;72609;45.768;4.884;2024-02-15T17:15:07;15.50;43.50
82851;DHT22;72609;45.768;4.884;2024-02-15T17:17:35;15.50;43.90
82851;DHT22;72609;45.768;4.884;2024-02-15T17:20:03;15.40;44.20
82851;DHT22;72609;45.768;4.884;2024-02-15T17:22:42;15.30;44.00
82851;DHT22;72609;45.768;4.884;2024-02-15T17:25:08;15.40;44.00
82851;DHT22;72609;45.768;4.884;2024-02-15T17:27:35;15.30;44.00
82851;DHT22;72609;45.768;4.884;2024-02-15T17:30:12;15.30;44.20
82851;DHT22;72609;45.768;4.884;2024-02-15T17:32:39;15.30;44.60
82851;DHT22;72609;45.768;4.884;2024-02-15T17:35:07;15.30;44.80
82851;DHT22;72609;45.768;4.884;2024-02-15T17:37:34;15.20;44.70
82851;DHT22;72609;45.768;4.884;2024-02-15T17:39:59;15.20;44.90
82851;DHT22;72609;45.768;4.884;2024-02-15T17:42:25;15.20;45.30
82851;DHT22;72609;45.768;4.884;2024-02-15T17:44:51;15.20;45.70
82851;DHT22;72609;45.768;4.884;2024-02-15T17:47:17;15.10;45.90
82851;DHT22;72609;45.768;4.884;2024-02-15T17:49:42;15.10;46.60
82851;DHT22;72609;45.768;4.884;2024-02-15T17:52:08;15.10;46.50
82851;DHT22;72609;45.768;4.884;2024-02-15T17:54:34;15.10;46.40
82851;DHT22;72609;45.768;4.884;2024-02-15T17:57:00;15.10;47.20
82851;DHT22;72609;45.768;4.884;2024-02-15T17:59:26;15.10;47.20
82851;DHT22;72609;45.768;4.884;2024-02-15T18:01:51;15.00;47.30
82851;DHT22;72609;45.768;4.884;2024-02-15T18:04:17;15.00;47.80
82851;DHT22;72609;45.768;4.884;2024-02-15T18:06:44;15.00;48.20
82851;DHT22;72609;45.768;4.884;2024-02-15T18:09:10;15.00;48.30
82851;DHT22;72609;45.768;4.884;2024-02-15T18:11:37;15.00;48.80
82851;DHT22;72609;45.768;4.884;2024-02-15T18:14:02;15.00;49.10
82851;DHT22;72609;45.768;4.884;2024-02-15T18:16:28;15.00;49.50
82851;DHT22;72609;45.768;4.884;2024-02-15T18:18:56;14.90;49.90
82851;DHT22;72609;45.768;4.884;2024-02-15T18:21:22;14.90;50.10
82851;DHT22;72609;45.768;4.884;2024-02-15T18:23:49;15.00;50.40
82851;DHT22;72609;45.768;4.884;2024-02-15T18:26:14;14.90;50.60
82851;DHT22;72609;45.768;4.884;2024-02-15T18:28:40;14.90;51.00
82851;DHT22;72609;45.768;4.884;2024-02-15T18:31:05;14.90;51.50
82851;DHT22;72609;45.768;4.884;2024-02-15T18:33:35;14.90;51.50
82851;DHT22;72609;45.768;4.884;2024-02-15T18:36:04;14.90;52.10
82851;DHT22;72609;45.768;4.884;2024-02-15T18:38:30;14.90;52.00
82851;DHT22;72609;45.768;4.884;2024-02-15T18:40:55;14.90;52.40
82851;DHT22;72609;45.768;4.884;2024-02-15T18:43:23;14.80;52.80
82851;DHT22;72609;45.768;4.884;2024-02-15T18:45:49;14.80;53.00
82851;DHT22;72609;45.768;4.884;2024-02-15T18:48:14;14.80;53.10
82851;DHT22;72609;45.768;4.884;2024-02-15T18:50:43;14.80;53.40
82851;DHT22;72609;45.768;4.884;2024-02-15T18:53:10;14.80;53.60
82851;DHT22;72609;45.768;4.884;2024-02-15T18:55:40;14.80;54.00
82851;DHT22;72609;45.768;4.884;2024-02-15T18:58:05;14.80;54.10
82851;DHT22;72609;45.768;4.884;2024-02-15T19:00:31;14.80;54.30
82851;DHT22;72609;45.768;4.884;2024-02-15T19:02:59;14.70;54.50
82851;DHT22;72609;45.768;4.884;2024-02-15T19:05:25;14.80;55.20
82851;DHT22;72609;45.768;4.884;2024-02-15T19:07:53;14.70;54.50
82851;DHT22;72609;45.768;4.884;2024-02-15T19:10:19;14.70;54.70
82851;DHT22;72609;45.768;4.884;2024-02-15T19:12:46;14.70;54.80
82851;DHT22;72609;45.768;4.884;2024-02-15T19:15:12;14.70;54.80
82851;DHT22;72609;45.768;4.884;2024-02-15T19:17:38;14.70;54.90
82851;DHT22;72609;45.768;4.884;2024-02-15T19:20:05;14.70;54.90
82851;DHT22;72609;45.768;4.884;2024-02-15T19:22:37;14.60;54.90
82851;DHT22;72609;45.768;4.884;2024-02-15T19:25:03;14.70;55.10
82851;DHT22;72609;45.768;4.884;2024-02-15T19:27:30;14.70;55.10
82851;DHT22;72609;45.768;4.884;2024-02-15T19:29:56;14.60;55.10
82851;DHT22;72609;45.768;4.884;2024-02-15T19:32:21;14.60;55.30
82851;DHT22;72609;45.768;4.884;2024-02-15T19:34:47;14.60;55.10
82851;DHT22;72609;45.768;4.884;2024-02-15T19:37:12;14.60;55.10
82851;DHT22;72609;45.768;4.884;2024-02-15T19:39:39;14.60;55.10
82851;DHT22;72609;45.768;4.884;2024-02-15T19:42:06;14.60;55.00
82851;DHT22;72609;45.768;4.884;2024-02-15T19:44:35;14.60;54.90
82851;DHT22;72609;45.768;4.884;2024-02-15T19:47:01;14.60;54.80
82851;DHT22;72609;45.768;4.884;2024-02-15T19:49:30;14.60;54.50
82851;DHT22;72609;45.768;4.884;2024-02-15T19:51:57;14.60;54.50
82851;DHT22;72609;45.768;4.884;2024-02-15T19:54:22;14.60;54.50
82851;DHT22;72609;45.768;4.884;2024-02-15T19:56:50;14.60;54.30
82851;DHT22;72609;45.768;4.884;2024-02-15T19:59:15;14.50;54.40
82851;DHT22;72609;45.768;4.884;2024-02-15T20:01:41;14.50;54.50
82851;DHT22;72609;45.768;4.884;2024-02-15T20:04:09;14.50;54.30
82851;DHT22;72609;45.768;4.884;2024-02-15T20:06:35;14.50;54.30
82851;DHT22;72609;45.768;4.884;2024-02-15T20:09:02;14.50;54.30
82851;DHT22;72609;45.768;4.884;2024-02-15T20:11:29;14.50;54.40
82851;DHT22;72609;45.768;4.884;2024-02-15T20:13:56;14.50;53.80
82851;DHT22;72609;45.768;4.884;2024-02-15T20:16:23;14.50;53.80
82851;DHT22;72609;45.768;4.884;2024-02-15T20:18:49;14.50;53.90
82851;DHT22;72609;45.768;4.884;2024-02-15T20:21:17;14.50;54.00
82851;DHT22;72609;45.768;4.884;2024-02-15T20:23:43;14.50;54.20
82851;DHT22;72609;45.768;4.884;2024-02-15T20:26:08;14.50;54.50
82851;DHT22;72609;45.768;4.884;2024-02-15T20:28:35;14.50;54.60
82851;DHT22;72609;45.768;4.884;2024-02-15T20:31:01;14.50;54.90
82851;DHT22;72609;45.768;4.884;2024-02-15T20:33:26;14.50;54.80
82851;DHT22;72609;45.768;4.884;2024-02-15T20:35:55;14.50;55.10
82851;DHT22;72609;45.768;4.884;2024-02-15T20:38:21;14.50;55.40
82851;DHT22;72609;45.768;4.884;2024-02-15T20:40:54;14.50;55.50
82851;DHT22;72609;45.768;4.884;2024-02-15T20:43:20;14.50;55.80
82851;DHT22;72609;45.768;4.884;2024-02-15T20:45:46;14.50;55.90
82851;DHT22;72609;45.768;4.884;2024-02-15T20:48:12;14.60;56.10
82851;DHT22;72609;45.768;4.884;2024-02-15T20:50:38;14.50;56.20
82851;DHT22;72609;45.768;4.884;2024-02-15T20:53:06;14.50;56.30
82851;DHT22;72609;45.768;4.884;2024-02-15T20:55:31;14.50;56.40
82851;DHT22;72609;45.768;4.884;2024-02-15T20:57:57;14.50;56.20
82851;DHT22;72609;45.768;4.884;2024-02-15T21:00:22;14.50;56.30
82851;DHT22;72609;45.768;4.884;2024-02-15T21:02:48;14.50;56.40
82851;DHT22;72609;45.768;4.884;2024-02-15T21:05:16;14.50;56.40
82851;DHT22;72609;45.768;4.884;2024-02-15T21:07:42;14.50;56.50
82851;DHT22;72609;45.768;4.884;2024-02-15T21:10:08;14.50;56.60
82851;DHT22;72609;45.768;4.884;2024-02-15T21:12:40;14.50;56.80
82851;DHT22;72609;45.768;4.884;2024-02-15T21:15:07;14.40;56.90
82851;DHT22;72609;45.768;4.884;2024-02-15T21:17:39;14.50;56.80
82851;DHT22;72609;45.768;4.884;2024-02-15T21:20:06;14.40;56.90
82851;DHT22;72609;45.768;4.884;2024-02-15T21:22:32;14.50;56.90
82851;DHT22;72609;45.768;4.884;2024-02-15T21:24:58;14.40;57.10
82851;DHT22;72609;45.768;4.884;2024-02-15T21:27:24;14.50;57.00
82851;DHT22;72609;45.768;4.884;2024-02-15T21:29:49;14.50;57.10
82851;DHT22;72609;45.768;4.884;2024-02-15T21:32:16;14.40;57.10
82851;DHT22;72609;45.768;4.884;2024-02-15T21:34:42;14.50;56.90
82851;DHT22;72609;45.768;4.884;2024-02-15T21:37:08;14.50;57.60
82851;DHT22;72609;45.768;4.884;2024-02-15T21:39:35;14.50;57.00
82851;DHT22;72609;45.768;4.884;2024-02-15T21:42:07;14.50;56.90
82851;DHT22;72609;45.768;4.884;2024-02-15T21:44:33;14.50;57.10
82851;DHT22;72609;45.768;4.884;2024-02-15T21:46:59;14.50;57.20
82851;DHT22;72609;45.768;4.884;2024-02-15T21:49:24;14.50;57.20
82851;DHT22;72609;45.768;4.884;2024-02-15T21:51:50;14.50;57.50
82851;DHT22;72609;45.768;4.884;2024-02-15T21:54:16;14.50;57.70
82851;DHT22;72609;45.768;4.884;2024-02-15T21:56:41;14.50;57.60
82851;DHT22;72609;45.768;4.884;2024-02-15T21:59:08;14.50;57.80
82851;DHT22;72609;45.768;4.884;2024-02-15T22:01:41;14.50;57.70
82851;DHT22;72609;45.768;4.884;2024-02-15T22:04:06;14.40;57.80
82851;DHT22;72609;45.768;4.884;2024-02-15T22:06:32;14.50;57.90
82851;DHT22;72609;45.768;4.884;2024-02-15T22:08:58;14.40;58.10
82851;DHT22;72609;45.768;4.884;2024-02-15T22:11:24;14.50;58.40
82851;DHT22;72609;45.768;4.884;2024-02-15T22:13:50;14.50;58.40
82851;DHT22;72609;45.768;4.884;2024-02-15T22:16:16;14.50;58.40
82851;DHT22;72609;45.768;4.884;2024-02-15T22:18:42;14.50;58.30
82851;DHT22;72609;45.768;4.884;2024-02-15T22:21:08;14.50;58.50
82851;DHT22;72609;45.768;4.884;2024-02-15T22:23:35;14.50;58.60
82851;DHT22;72609;45.768;4.884;2024-02-15T22:26:01;14.50;58.80
82851;DHT22;72609;45.768;4.884;2024-02-15T22:28:27;14.50;58.80
82851;DHT22;72609;45.768;4.884;2024-02-15T22:30:53;14.50;59.10
82851;DHT22;72609;45.768;4.884;2024-02-15T22:33:19;14.60;58.90
82851;DHT22;72609;45.768;4.884;2024-02-15T22:35:49;14.60;59.00
82851;DHT22;72609;45.768;4.884;2024-02-15T22:38:15;14.50;59.00
82851;DHT22;72609;45.768;4.884;2024-02-15T22:40:41;14.50;59.20
82851;DHT22;72609;45.768;4.884;2024-02-15T22:43:12;14.50;59.40
82851;DHT22;72609;45.768;4.884;2024-02-15T22:45:38;14.60;59.20
82851;DHT22;72609;45.768;4.884;2024-02-15T22:48:04;14.60;59.40
82851;DHT22;72609;45.768;4.884;2024-02-15T22:50:29;14.60;59.20
82851;DHT22;72609;45.768;4.884;2024-02-15T22:52:55;14.60;59.20
82851;DHT22;72609;45.768;4.884;2024-02-15T22:55:21;14.60;59.30
82851;DHT22;72609;45.768;4.884;2024-02-15T22:57:47;14.50;59.20
82851;DHT22;72609;45.768;4.884;2024-02-15T23:00:13;14.60;59.00
82851;DHT22;72609;45.768;4.884;2024-02-15T23:02:44;14.60;59.10
82851;DHT22;72609;45.768;4.884;2024-02-15T23:05:10;14.60;58.90
82851;DHT22;72609;45.768;4.884;2024-02-15T23:07:37;14.60;58.70
82851;DHT22;72609;45.768;4.884;2024-02-15T23:10:03;14.60;58.60
82851;DHT22;72609;45.768;4.884;2024-02-15T23:12:31;14.60;58.70
82851;DHT22;72609;45.768;4.884;2024-02-15T23:14:57;14.60;58.70
82851;DHT22;72609;45.768;4.884;2024-02-15T23:17:22;14.60;58.30
82851;DHT22;72609;45.768;4.884;2024-02-15T23:19:52;14.60;58.10
82851;DHT22;72609;45.768;4.884;2024-02-15T23:22:18;14.60;58.10
82851;DHT22;72609;45.768;4.884;2024-02-15T23:24:43;14.60;57.50
82851;DHT22;72609;45.768;4.884;2024-02-15T23:27:09;14.60;57.90
82851;DHT22;72609;45.768;4.884;2024-02-15T23:29:34;14.70;58.10
82851;DHT22;72609;45.768;4.884;2024-02-15T23:32:00;14.60;57.60
82851;DHT22;72609;45.768;4.884;2024-02-15T23:34:26;14.70;58.60
82851;DHT22;72609;45.768;4.884;2024-02-15T23:36:52;14.70;57.80
82851;DHT22;72609;45.768;4.884;2024-02-15T23:39:36;14.60;57.60
82851;DHT22;72609;45.768;4.884;2024-02-15T23:42:20;14.60;57.80
82851;DHT22;72609;45.768;4.884;2024-02-15T23:44:46;14.70;57.90
82851;DHT22;72609;45.768;4.884;2024-02-15T23:47:11;14.70;58.20
82851;DHT22;72609;45.768;4.884;2024-02-15T23:49:37;14.70;58.10
82851;DHT22;72609;45.768;4.884;2024-02-15T23:52:03;14.60;58.20
82851;DHT22;72609;45.768;4.884;2024-02-15T23:54:28;14.70;58.30
82851;DHT22;72609;45.768;4.884;2024-02-15T23:56:54;14.70;58.10
82851;DHT22;72609;45.768;4.884;2024-02-15T23:59:20;14.60;58.20
